Time,TemperatureF,DewpointF,PressureIn,WindDirection,WindDirectionDegrees,WindSpeedMPH,WindSpeedGustMPH,Humidity,HourlyPrecipIn,Conditions,Clouds,dailyrainin,SolarRadiationWatts/m^2,SoftwareType,DateUTC
2013-12-31 00:00:00,25.8,21.3,30.23,SSE,167,0.0,0.0,83,0.00,,,0.00,0,Wunderground v.1.15,2013-12-31 08:00:00,
2013-12-31 00:10:00,25.7,21.3,30.22,SSE,167,0.0,0.0,83,0.00,,,0.00,0,Wunderground v.1.15,2013-12-31 08:10:00,
2013-12-31 00:20:00,25.6,21.2,30.22,SSE,167,0.0,0.0,83,0.00,,,0.00,0,Wunderground v.1.15,2013-12-31 08:20:00,
2013-12-31 00:30:00,25.1,20.9,30.21,SSE,167,0.0,0.0,84,0.00,,,0.00,0,Wunderground v.1.15,2013-12-31 08:30:00,
2013-12-31 00:40:00,24.8,20.7,30.21,SSE,167,0.0,0.0,84,0.00,,,0.00,0,Wunderground v.1.15,2013-12-31 08:40:00,
2013-12-31 00:50:00,24.5,20.1,30.21,SSE,167,0.0,0.0,83,0.00,,,0.00,0,Wunderground v.1.15,2013-12-31 08:50:00,
2013-12-31 01:00:00,24.4,20.3,30.22,SSE,167,0.0,0.0,84,0.00,,,0.00,0,Wunderground v.1.15,2013-12-31 09:00:00,
2013-12-31 01:15:00,24.1,20.0,30.22,SSE,167,0.0,0.0,84,0.00,,,0.00,0,Wunderground v.1.15,2013-12-31 09:15:00,
2013-12-31 01:25:00,24.1,20.0,30.22,SSE,167,0.0,0.0,84,0.00,,,0.00,0,Wunderground v.1.15,2013-12-31 09:25:00,
2013-12-31 01:35:00,24.2,19.8,30.22,SSE,167,0.0,0.0,83,0.00,,,0.00,0,Wunderground v.1.15,2013-12-31 09:35:00,
2013-12-31 01:45:00,24.4,20.0,30.22,SSE,167,0.0,0.0,83,0.00,,,0.00,0,Wunderground v.1.15,2013-12-31 09:45:00,
2013-12-31 01:55:00,24.5,20.1,30.21,SSE,167,0.0,0.0,83,0.00,,,0.00,0,Wunderground v.1.15,2013-12-31 09:55:00,
2013-12-31 02:05:00,24.7,20.3,30.22,SSE,167,0.0,0.0,83,0.00,,,0.00,0,Wunderground v.1.15,2013-12-31 10:05:00,
2013-12-31 02:10:00,24.8,20.4,30.23,SSE,167,0.0,0.0,83,0.00,,,0.00,0,Wunderground v.1.15,2013-12-31 10:10:00,
2013-12-31 02:20:00,25.0,20.3,30.22,SSE,167,0.0,0.0,82,0.00,,,0.00,0,Wunderground v.1.15,2013-12-31 10:20:00,
2013-12-31 02:30:00,25.1,20.4,30.22,SSE,167,0.0,0.0,82,0.00,,,0.00,0,Wunderground v.1.15,2013-12-31 10:30:00,
2013-12-31 02:35:00,25.0,20.3,30.22,SSE,167,0.0,0.0,82,0.00,,,0.00,0,Wunderground v.1.15,2013-12-31 10:35:00,
2013-12-31 02:45:00,24.8,20.4,30.22,SSE,167,0.0,0.0,83,0.00,,,0.00,0,Wunderground v.1.15,2013-12-31 10:45:00,
2013-12-31 02:50:00,24.8,20.4,30.21,SSE,167,0.0,0.0,83,0.00,,,0.00,0,Wunderground v.1.15,2013-12-31 10:50:00,
2013-12-31 03:00:00,25.0,20.8,30.21,SSE,167,0.0,0.0,84,0.00,,,0.00,0,Wunderground v.1.15,2013-12-31 11:00:00,
2013-12-31 03:10:00,25.3,21.1,30.22,SSE,167,0.0,0.0,84,0.00,,,0.00,0,Wunderground v.1.15,2013-12-31 11:10:00,
2013-12-31 03:15:00,25.4,21.0,30.21,SSE,167,0.0,0.0,83,0.00,,,0.00,0,Wunderground v.1.15,2013-12-31 11:15:00,
2013-12-31 03:25:00,25.4,21.0,30.21,SSE,167,0.0,0.0,83,0.00,,,0.00,0,Wunderground v.1.15,2013-12-31 11:25:00,
2013-12-31 03:30:00,25.4,21.0,30.20,SSE,167,0.0,0.0,83,0.00,,,0.00,0,Wunderground v.1.15,2013-12-31 11:30:00,
2013-12-31 03:40:00,25.1,20.7,30.21,SSE,167,0.0,0.0,83,0.00,,,0.00,0,Wunderground v.1.15,2013-12-31 11:40:00,
2013-12-31 03:50:00,25.0,20.8,30.21,SSE,167,0.0,0.0,84,0.00,,,0.00,0,Wunderground v.1.15,2013-12-31 11:50:00,
2013-12-31 04:00:00,25.1,20.9,30.20,SSE,167,0.0,0.0,84,0.00,,,0.00,0,Wunderground v.1.15,2013-12-31 12:00:00,
2013-12-31 04:10:00,25.1,20.9,30.20,SSE,167,0.0,0.0,84,0.00,,,0.00,0,Wunderground v.1.15,2013-12-31 12:10:00,
2013-12-31 04:20:00,24.8,20.7,30.21,SSE,167,0.0,0.0,84,0.00,,,0.00,0,Wunderground v.1.15,2013-12-31 12:20:00,
2013-12-31 04:25:00,24.8,20.7,30.21,SSE,167,0.0,0.0,84,0.00,,,0.00,0,Wunderground v.1.15,2013-12-31 12:25:00,
2013-12-31 04:35:00,25.0,20.8,30.22,SSE,167,0.0,0.0,84,0.00,,,0.00,0,Wunderground v.1.15,2013-12-31 12:35:00,
2013-12-31 04:40:00,25.1,21.2,30.21,SSE,167,0.0,0.0,85,0.00,,,0.00,0,Wunderground v.1.15,2013-12-31 12:40:00,
2013-12-31 04:50:00,25.3,21.1,30.20,SSE,167,0.0,0.0,84,0.00,,,0.00,0,Wunderground v.1.15,2013-12-31 12:50:00,
2013-12-31 05:00:00,25.3,21.4,30.21,SSE,167,0.0,0.0,85,0.00,,,0.00,0,Wunderground v.1.15,2013-12-31 13:00:00,
2013-12-31 05:10:00,25.3,21.1,30.21,SSE,167,0.0,0.0,84,0.00,,,0.00,0,Wunderground v.1.15,2013-12-31 13:10:00,
2013-12-31 05:20:00,25.4,21.2,30.23,SSE,167,0.0,0.0,84,0.00,,,0.00,0,Wunderground v.1.15,2013-12-31 13:20:00,
2013-12-31 05:30:00,25.6,21.4,30.22,SSE,167,0.0,0.0,84,0.00,,,0.00,0,Wunderground v.1.15,2013-12-31 13:30:00,
2013-12-31 05:40:00,25.6,21.4,30.21,SSE,167,0.0,0.0,84,0.00,,,0.00,0,Wunderground v.1.15,2013-12-31 13:40:00,
2013-12-31 05:50:00,25.6,21.4,30.21,SSE,167,0.0,0.0,84,0.00,,,0.00,0,Wunderground v.1.15,2013-12-31 13:50:00,
2013-12-31 06:00:00,25.7,21.5,30.23,SSE,167,0.0,0.0,84,0.00,,,0.00,0,Wunderground v.1.15,2013-12-31 14:00:00,
2013-12-31 06:10:00,25.7,21.5,30.23,SSE,167,0.0,0.0,84,0.00,,,0.00,0,Wunderground v.1.15,2013-12-31 14:10:00,
2013-12-31 06:20:00,25.7,21.8,30.23,SSE,167,0.0,0.0,85,0.00,,,0.00,0,Wunderground v.1.15,2013-12-31 14:20:00,
2013-12-31 06:30:00,25.7,21.8,30.23,SSE,167,0.0,0.0,85,0.00,,,0.00,0,Wunderground v.1.15,2013-12-31 14:30:00,
2013-12-31 06:40:00,25.8,21.9,30.23,SSE,167,0.0,0.0,85,0.00,,,0.00,0,Wunderground v.1.15,2013-12-31 14:40:00,
2013-12-31 06:45:00,26.0,22.1,30.23,SSE,167,0.0,0.0,85,0.00,,,0.00,0,Wunderground v.1.15,2013-12-31 14:45:00,
2013-12-31 06:55:00,26.0,21.8,30.23,SSE,167,0.0,0.0,84,0.00,,,0.00,0,Wunderground v.1.15,2013-12-31 14:55:00,
2013-12-31 07:00:00,26.1,22.2,30.23,SSE,167,0.0,0.0,85,0.00,,,0.00,0,Wunderground v.1.15,2013-12-31 15:00:00,
2013-12-31 07:10:00,26.1,21.9,30.24,SSE,167,0.0,0.0,84,0.00,,,0.00,0,Wunderground v.1.15,2013-12-31 15:10:00,
2013-12-31 07:20:00,26.3,21.8,30.24,SSE,167,0.0,0.0,83,0.00,,,0.00,0,Wunderground v.1.15,2013-12-31 15:20:00,
2013-12-31 07:30:00,26.4,21.9,30.24,SSE,167,0.0,0.0,83,0.00,,,0.00,0,Wunderground v.1.15,2013-12-31 15:30:00,
2013-12-31 07:40:00,26.3,22.1,30.23,SSE,167,0.0,0.0,84,0.00,,,0.00,0,Wunderground v.1.15,2013-12-31 15:40:00,
2013-12-31 07:50:00,26.4,21.9,30.23,SSE,167,0.0,0.0,83,0.00,,,0.00,0,Wunderground v.1.15,2013-12-31 15:50:00,
2013-12-31 08:00:00,26.1,21.6,30.23,SSE,167,0.0,0.0,83,0.00,,,0.00,0,Wunderground v.1.15,2013-12-31 16:00:00,
2013-12-31 08:05:00,25.8,21.3,30.24,SSE,167,0.0,0.0,83,0.00,,,0.00,0,Wunderground v.1.15,2013-12-31 16:05:00,
2013-12-31 08:15:00,25.7,21.5,30.24,SSE,167,0.0,0.0,84,0.00,,,0.00,9,Wunderground v.1.15,2013-12-31 16:15:00,
2013-12-31 08:25:00,25.7,22.1,30.24,SSE,167,0.0,0.0,86,0.00,,,0.00,12,Wunderground v.1.15,2013-12-31 16:25:00,
2013-12-31 08:35:00,25.7,22.1,30.25,SSE,167,0.0,0.0,86,0.00,,,0.00,21,Wunderground v.1.15,2013-12-31 16:35:00,
2013-12-31 08:45:00,26.0,22.4,30.25,SSE,167,0.0,0.0,86,0.00,,,0.00,37,Wunderground v.1.15,2013-12-31 16:45:00,
2013-12-31 08:55:00,26.3,22.7,30.25,SSE,167,0.0,0.0,86,0.00,,,0.00,54,Wunderground v.1.15,2013-12-31 16:55:00,
2013-12-31 09:05:00,26.4,22.5,30.24,SSE,167,0.0,0.0,85,0.00,,,0.00,84,Wunderground v.1.15,2013-12-31 17:05:00,
2013-12-31 09:15:00,27.2,23.3,30.25,SSE,167,0.0,0.0,85,0.00,,,0.00,125,Wunderground v.1.15,2013-12-31 17:15:00,
2013-12-31 09:20:00,27.6,23.4,30.25,SSE,167,0.0,0.0,84,0.00,,,0.00,125,Wunderground v.1.15,2013-12-31 17:20:00,
2013-12-31 09:30:00,27.0,22.5,30.26,SSE,167,0.0,0.0,83,0.00,,,0.00,70,Wunderground v.1.15,2013-12-31 17:30:00,
2013-12-31 09:40:00,26.4,22.2,30.26,SSE,167,1.0,1.0,84,0.00,,,0.00,77,Wunderground v.1.15,2013-12-31 17:40:00,
2013-12-31 09:50:00,26.3,22.4,30.26,SSE,167,1.0,1.0,85,0.00,,,0.00,90,Wunderground v.1.15,2013-12-31 17:50:00,
2013-12-31 10:00:00,26.4,22.5,30.26,SSE,148,1.0,2.0,85,0.00,,,0.00,105,Wunderground v.1.15,2013-12-31 18:00:00,
2013-12-31 10:05:00,26.4,22.5,30.26,SE,134,2.0,2.0,85,0.00,,,0.00,102,Wunderground v.1.15,2013-12-31 18:05:00,
2013-12-31 10:15:00,26.3,22.4,30.27,SE,134,1.0,2.0,85,0.00,,,0.00,76,Wunderground v.1.15,2013-12-31 18:15:00,
2013-12-31 10:25:00,26.1,22.2,30.27,SE,134,1.0,2.0,85,0.00,,,0.00,109,Wunderground v.1.15,2013-12-31 18:25:00,
2013-12-31 10:35:00,26.3,22.4,30.27,SE,134,0.0,1.0,85,0.00,,,0.00,114,Wunderground v.1.15,2013-12-31 18:35:00,
2013-12-31 10:45:00,26.4,22.5,30.27,SSE,151,1.0,2.0,85,0.00,,,0.00,111,Wunderground v.1.15,2013-12-31 18:45:00,
2013-12-31 10:55:00,26.7,22.8,30.27,SSE,151,1.0,1.0,85,0.00,,,0.00,128,Wunderground v.1.15,2013-12-31 18:55:00,
2013-12-31 11:00:00,26.7,22.8,30.27,SSE,151,0.0,0.0,85,0.00,,,0.00,155,Wunderground v.1.15,2013-12-31 19:00:00,
2013-12-31 11:10:00,26.7,22.8,30.27,SSE,153,0.0,0.0,85,0.00,,,0.00,146,Wunderground v.1.15,2013-12-31 19:10:00,
2013-12-31 11:20:00,26.9,23.0,30.27,SSE,153,0.0,0.0,85,0.00,,,0.00,153,Wunderground v.1.15,2013-12-31 19:20:00,
2013-12-31 11:30:00,26.9,23.0,30.27,SSE,153,0.0,2.0,85,0.00,,,0.00,223,Wunderground v.1.15,2013-12-31 19:30:00,
2013-12-31 11:40:00,27.2,23.3,30.27,SSE,153,1.0,1.0,85,0.00,,,0.00,190,Wunderground v.1.15,2013-12-31 19:40:00,
2013-12-31 11:50:00,27.6,23.4,30.27,SSE,153,0.0,0.0,84,0.00,,,0.00,288,Wunderground v.1.15,2013-12-31 19:50:00,
2013-12-31 12:00:00,29.1,24.6,30.27,SSE,153,0.0,0.0,83,0.00,,,0.00,334,Wunderground v.1.15,2013-12-31 20:00:00,
2013-12-31 12:10:00,30.1,24.7,30.27,SSE,153,0.0,2.0,80,0.00,,,0.00,329,Wunderground v.1.15,2013-12-31 20:10:00,
2013-12-31 12:15:00,30.1,24.4,30.26,SSE,153,1.0,2.0,79,0.00,,,0.00,343,Wunderground v.1.15,2013-12-31 20:15:00,
2013-12-31 12:25:00,30.1,24.4,30.26,SE,140,1.0,2.0,79,0.00,,,0.00,339,Wunderground v.1.15,2013-12-31 20:25:00,
2013-12-31 12:35:00,30.6,24.9,30.26,SE,140,0.0,1.0,79,0.00,,,0.00,278,Wunderground v.1.15,2013-12-31 20:35:00,
2013-12-31 12:45:00,30.6,24.6,30.26,SE,146,2.0,5.0,78,0.00,,,0.00,304,Wunderground v.1.15,2013-12-31 20:45:00,
2013-12-31 12:55:00,30.0,24.3,30.26,SE,128,3.0,4.0,79,0.00,,,0.00,306,Wunderground v.1.15,2013-12-31 20:55:00,
2013-12-31 13:05:00,29.7,24.3,30.27,SE,143,3.0,4.0,80,0.00,,,0.00,183,Wunderground v.1.15,2013-12-31 21:05:00,
2013-12-31 13:15:00,29.0,23.9,30.27,SE,124,3.0,3.0,81,0.00,,,0.00,98,Wunderground v.1.15,2013-12-31 21:15:00,
2013-12-31 13:20:00,28.8,23.7,30.27,SSE,150,3.0,5.0,81,0.00,,,0.00,97,Wunderground v.1.15,2013-12-31 21:20:00,
2013-12-31 13:30:00,28.8,24.0,30.27,SE,138,3.0,3.0,82,0.00,,,0.00,98,Wunderground v.1.15,2013-12-31 21:30:00,
2013-12-31 13:40:00,29.0,24.2,30.28,SSE,159,2.0,2.0,82,0.00,,,0.00,86,Wunderground v.1.15,2013-12-31 21:40:00,
2013-12-31 13:45:00,29.1,24.3,30.28,SE,144,2.0,3.0,82,0.00,,,0.00,77,Wunderground v.1.15,2013-12-31 21:45:00,
2013-12-31 13:50:00,29.1,24.3,30.27,SSE,149,2.0,2.0,82,0.00,,,0.00,74,Wunderground v.1.15,2013-12-31 21:50:00,
2013-12-31 14:00:00,29.4,24.6,30.27,SSE,150,0.0,0.0,82,0.00,,,0.00,100,Wunderground v.1.15,2013-12-31 22:00:00,
2013-12-31 14:10:00,30.1,25.3,30.27,SSE,150,0.0,0.0,82,0.00,,,0.00,83,Wunderground v.1.15,2013-12-31 22:10:00,
2013-12-31 14:20:00,30.1,25.0,30.28,SSE,150,0.0,1.0,81,0.00,,,0.00,53,Wunderground v.1.15,2013-12-31 22:20:00,
2013-12-31 14:30:00,29.0,23.6,30.29,SE,142,1.0,2.0,80,0.00,,,0.00,42,Wunderground v.1.15,2013-12-31 22:30:00,
2013-12-31 14:40:00,28.4,23.3,30.30,SE,142,0.0,0.0,81,0.00,,,0.00,53,Wunderground v.1.15,2013-12-31 22:40:00,
2013-12-31 14:45:00,28.4,23.3,30.30,SE,142,0.0,0.0,81,0.00,,,0.00,51,Wunderground v.1.15,2013-12-31 22:45:00,
2013-12-31 14:55:00,28.8,23.7,30.30,SE,142,0.0,0.0,81,0.00,,,0.00,56,Wunderground v.1.15,2013-12-31 22:55:00,
2013-12-31 15:05:00,29.1,24.0,30.30,SE,142,0.0,0.0,81,0.00,,,0.00,44,Wunderground v.1.15,2013-12-31 23:05:00,
2013-12-31 15:15:00,29.4,24.3,30.31,SE,142,0.0,0.0,81,0.00,,,0.00,12,Wunderground v.1.15,2013-12-31 23:15:00,
2013-12-31 15:25:00,29.1,24.0,30.31,SE,142,0.0,0.0,81,0.00,,,0.00,14,Wunderground v.1.15,2013-12-31 23:25:00,
2013-12-31 15:35:00,28.7,23.6,30.32,SE,142,0.0,0.0,81,0.00,,,0.00,12,Wunderground v.1.15,2013-12-31 23:35:00,
2013-12-31 15:45:00,28.2,23.4,30.33,SE,142,0.0,0.0,82,0.00,,,0.00,18,Wunderground v.1.15,2013-12-31 23:45:00,
2013-12-31 15:55:00,27.9,23.1,30.33,SE,142,0.0,0.0,82,0.00,,,0.00,16,Wunderground v.1.15,2013-12-31 23:55:00,
2013-12-31 16:05:00,27.9,23.4,30.34,SE,142,0.0,0.0,83,0.00,,,0.00,7,Wunderground v.1.15,2014-01-01 00:05:00,
2013-12-31 16:15:00,27.5,23.0,30.34,SE,142,0.0,0.0,83,0.00,,,0.00,0,Wunderground v.1.15,2014-01-01 00:15:00,
2013-12-31 16:25:00,27.2,22.7,30.35,SE,142,0.0,0.0,83,0.00,,,0.00,0,Wunderground v.1.15,2014-01-01 00:25:00,
2013-12-31 16:35:00,27.0,22.5,30.36,SE,142,0.0,0.0,83,0.00,,,0.00,0,Wunderground v.1.15,2014-01-01 00:35:00,
2013-12-31 16:45:00,26.6,22.1,30.36,SE,142,0.0,0.0,83,0.00,,,0.00,0,Wunderground v.1.15,2014-01-01 00:45:00,
2013-12-31 16:55:00,26.1,21.6,30.36,SE,142,0.0,0.0,83,0.00,,,0.00,0,Wunderground v.1.15,2014-01-01 00:55:00,
2013-12-31 17:05:00,25.4,21.2,30.37,SE,142,0.0,0.0,84,0.00,,,0.00,0,Wunderground v.1.15,2014-01-01 01:05:00,
2013-12-31 17:15:00,24.8,20.7,30.37,SE,142,0.0,0.0,84,0.00,,,0.00,0,Wunderground v.1.15,2014-01-01 01:15:00,
2013-12-31 17:20:00,24.8,20.9,30.37,SE,142,0.0,0.0,85,0.00,,,0.00,0,Wunderground v.1.15,2014-01-01 01:20:00,
2013-12-31 17:30:00,24.5,20.6,30.37,SE,142,0.0,0.0,85,0.00,,,0.00,0,Wunderground v.1.15,2014-01-01 01:30:00,
2013-12-31 17:40:00,24.1,20.0,30.38,SE,142,0.0,0.0,84,0.00,,,0.00,0,Wunderground v.1.15,2014-01-01 01:40:00,
2013-12-31 17:50:00,23.5,19.4,30.39,SE,142,0.0,0.0,84,0.00,,,0.00,0,Wunderground v.1.15,2014-01-01 01:50:00,
2013-12-31 18:00:00,23.0,18.6,30.40,SE,142,0.0,0.0,83,0.00,,,0.00,0,Wunderground v.1.15,2014-01-01 02:00:00,
2013-12-31 18:10:00,22.5,18.4,30.40,SE,142,0.0,0.0,84,0.00,,,0.00,0,Wunderground v.1.15,2014-01-01 02:10:00,
2013-12-31 18:20:00,22.1,18.0,30.40,SE,142,0.0,0.0,84,0.00,,,0.00,0,Wunderground v.1.15,2014-01-01 02:20:00,
2013-12-31 18:30:00,21.8,17.7,30.40,SE,142,0.0,0.0,84,0.00,,,0.00,0,Wunderground v.1.15,2014-01-01 02:30:00,
2013-12-31 18:40:00,21.4,17.3,30.41,SE,142,0.0,0.0,84,0.00,,,0.00,0,Wunderground v.1.15,2014-01-01 02:40:00,
2013-12-31 18:50:00,21.1,17.0,30.42,SE,142,0.0,0.0,84,0.00,,,0.00,0,Wunderground v.1.15,2014-01-01 02:50:00,
2013-12-31 19:00:00,20.6,16.3,30.42,SE,142,0.0,0.0,83,0.00,,,0.00,0,Wunderground v.1.15,2014-01-01 03:00:00,
2013-12-31 19:10:00,20.2,15.9,30.42,SE,142,0.0,0.0,83,0.00,,,0.00,0,Wunderground v.1.15,2014-01-01 03:10:00,
2013-12-31 19:20:00,19.7,15.1,30.43,SE,142,0.0,0.0,82,0.00,,,0.00,0,Wunderground v.1.15,2014-01-01 03:20:00,
2013-12-31 19:30:00,19.2,14.6,30.44,SE,142,0.0,0.0,82,0.00,,,0.00,0,Wunderground v.1.15,2014-01-01 03:30:00,
2013-12-31 19:40:00,18.9,14.3,30.44,SE,142,0.0,0.0,82,0.00,,,0.00,0,Wunderground v.1.15,2014-01-01 03:40:00,
2013-12-31 19:50:00,18.6,14.3,30.44,SE,142,0.0,0.0,83,0.00,,,0.00,0,Wunderground v.1.15,2014-01-01 03:50:00,
2013-12-31 20:00:00,18.3,13.7,30.45,SE,142,0.0,0.0,82,0.00,,,0.00,0,Wunderground v.1.15,2014-01-01 04:00:00,
2013-12-31 20:10:00,18.1,13.5,30.45,SE,142,0.0,0.0,82,0.00,,,0.00,0,Wunderground v.1.15,2014-01-01 04:10:00,
2013-12-31 20:20:00,17.7,13.1,30.45,SE,142,0.0,0.0,82,0.00,,,0.00,0,Wunderground v.1.15,2014-01-01 04:20:00,
2013-12-31 20:30:00,17.2,12.4,30.46,SE,142,0.0,0.0,81,0.00,,,0.00,0,Wunderground v.1.15,2014-01-01 04:30:00,
2013-12-31 20:40:00,16.7,11.9,30.46,SE,142,0.0,0.0,81,0.00,,,0.00,0,Wunderground v.1.15,2014-01-01 04:40:00,
2013-12-31 20:50:00,16.7,12.2,30.46,SE,142,0.0,0.0,82,0.00,,,0.00,0,Wunderground v.1.15,2014-01-01 04:50:00,
2013-12-31 20:55:00,16.7,12.2,30.46,SE,142,0.0,0.0,82,0.00,,,0.00,0,Wunderground v.1.15,2014-01-01 04:55:00,
2013-12-31 21:05:00,16.5,11.7,30.46,SE,142,0.0,0.0,81,0.00,,,0.00,0,Wunderground v.1.15,2014-01-01 05:05:00,
2013-12-31 21:10:00,16.2,11.4,30.46,SE,142,0.0,0.0,81,0.00,,,0.00,0,Wunderground v.1.15,2014-01-01 05:10:00,
2013-12-31 21:15:00,16.1,11.0,30.46,SE,142,0.0,0.0,80,0.00,,,0.00,0,Wunderground v.1.15,2014-01-01 05:15:00,
2013-12-31 21:20:00,15.9,11.1,30.46,SE,142,0.0,0.0,81,0.00,,,0.00,0,Wunderground v.1.15,2014-01-01 05:20:00,
2013-12-31 21:25:00,15.7,10.9,30.47,SE,142,0.0,0.0,81,0.00,,,0.00,0,Wunderground v.1.15,2014-01-01 05:25:00,
2013-12-31 21:30:00,15.6,10.8,30.47,SE,142,0.0,0.0,81,0.00,,,0.00,0,Wunderground v.1.15,2014-01-01 05:30:00,
2013-12-31 21:35:00,15.6,10.8,30.47,SE,142,0.0,0.0,81,0.00,,,0.00,0,Wunderground v.1.15,2014-01-01 05:35:00,
2013-12-31 21:40:00,15.4,10.6,30.47,SE,142,0.0,0.0,81,0.00,,,0.00,0,Wunderground v.1.15,2014-01-01 05:40:00,
2013-12-31 21:45:00,15.4,10.6,30.48,SE,142,0.0,0.0,81,0.00,,,0.00,0,Wunderground v.1.15,2014-01-01 05:45:00,
2013-12-31 21:55:00,15.1,10.3,30.48,SE,142,0.0,0.0,81,0.00,,,0.00,0,Wunderground v.1.15,2014-01-01 05:55:00,
2013-12-31 22:05:00,15.1,10.3,30.48,SE,142,0.0,0.0,81,0.00,,,0.00,0,Wunderground v.1.15,2014-01-01 06:05:00,
2013-12-31 22:10:00,14.9,10.1,30.48,SE,142,0.0,0.0,81,0.00,,,0.00,0,Wunderground v.1.15,2014-01-01 06:10:00,
2013-12-31 22:15:00,14.9,10.1,30.48,SE,142,0.0,0.0,81,0.00,,,0.00,0,Wunderground v.1.15,2014-01-01 06:15:00,
2013-12-31 22:20:00,14.8,10.0,30.47,SE,142,0.0,0.0,81,0.00,,,0.00,0,Wunderground v.1.15,2014-01-01 06:20:00,
2013-12-31 22:25:00,14.8,10.0,30.47,SE,142,0.0,0.0,81,0.00,,,0.00,0,Wunderground v.1.15,2014-01-01 06:25:00,
2013-12-31 22:30:00,14.6,9.8,30.48,SE,142,0.0,0.0,81,0.00,,,0.00,0,Wunderground v.1.15,2014-01-01 06:30:00,
2013-12-31 22:40:00,14.4,9.6,30.48,SE,142,0.0,0.0,81,0.00,,,0.00,0,Wunderground v.1.15,2014-01-01 06:40:00,
2013-12-31 22:50:00,14.3,9.5,30.49,SE,142,0.0,0.0,81,0.00,,,0.00,0,Wunderground v.1.15,2014-01-01 06:50:00,
2013-12-31 23:00:00,14.0,9.2,30.49,SE,142,0.0,0.0,81,0.00,,,0.00,0,Wunderground v.1.15,2014-01-01 07:00:00,
2013-12-31 23:10:00,13.5,8.5,30.50,SE,142,0.0,0.0,80,0.00,,,0.00,0,Wunderground v.1.15,2014-01-01 07:10:00,
2013-12-31 23:20:00,13.3,8.3,30.50,SE,142,0.0,0.0,80,0.00,,,0.00,0,Wunderground v.1.15,2014-01-01 07:20:00,
2013-12-31 23:30:00,13.3,8.3,30.50,SE,142,0.0,0.0,80,0.00,,,0.00,0,Wunderground v.1.15,2014-01-01 07:30:00,
2013-12-31 23:40:00,13.1,7.8,30.50,SE,142,0.0,0.0,79,0.00,,,0.00,0,Wunderground v.1.15,2014-01-01 07:40:00,
2013-12-31 23:50:00,12.8,7.8,30.49,SE,142,0.0,0.0,80,0.00,,,0.00,0,Wunderground v.1.15,2014-01-01 07:50:00,